sensor_id;sensor_type;location;lat;lon;timestamp;P1;durP1;ratioP1;P2;durP2;ratioP2
35276;SDS011;21401;50.878;8.050;2022-11-20T00:01:22;16.55;;;8.05;;
35276;SDS011;21401;50.878;8.050;2022-11-20T00:03:50;13.65;;;8.40;;
35276;SDS011;21401;50.878;8.050;2022-11-20T00:06:18;17.42;;;9.90;;
35276;SDS011;21401;50.878;8.050;2022-11-20T00:08:44;22.20;;;16.10;;
35276;SDS011;21401;50.878;8.050;2022-11-20T00:11:21;19.70;;;12.15;;
35276;SDS011;21401;50.878;8.050;2022-11-20T00:13:49;14.73;;;8.90;;
35276;SDS011;21401;50.878;8.050;2022-11-20T00:16:18;13.30;;;8.43;;
35276;SDS011;21401;50.878;8.050;2022-11-20T00:18:46;16.20;;;9.40;;
35276;SDS011;21401;50.878;8.050;2022-11-20T00:21:13;20.33;;;9.52;;
35276;SDS011;21401;50.878;8.050;2022-11-20T00:23:43;13.68;;;7.65;;
35276;SDS011;21401;50.878;8.050;2022-11-20T00:26:10;13.35;;;7.78;;
35276;SDS011;21401;50.878;8.050;2022-11-20T00:28:37;12.15;;;7.28;;
35276;SDS011;21401;50.878;8.050;2022-11-20T00:31:15;10.75;;;6.97;;
35276;SDS011;21401;50.878;8.050;2022-11-20T00:33:41;12.23;;;8.10;;
35276;SDS011;21401;50.878;8.050;2022-11-20T00:36:10;11.98;;;7.55;;
35276;SDS011;21401;50.878;8.050;2022-11-20T00:38:37;16.50;;;8.02;;
35276;SDS011;21401;50.878;8.050;2022-11-20T00:41:03;13.90;;;8.23;;
35276;SDS011;21401;50.878;8.050;2022-11-20T00:43:31;14.05;;;8.45;;
35276;SDS011;21401;50.878;8.050;2022-11-20T00:45:58;13.50;;;8.25;;
35276;SDS011;21401;50.878;8.050;2022-11-20T00:48:30;14.55;;;7.85;;
35276;SDS011;21401;50.878;8.050;2022-11-20T00:50:58;12.98;;;8.32;;
35276;SDS011;21401;50.878;8.050;2022-11-20T00:53:24;12.68;;;8.20;;
35276;SDS011;21401;50.878;8.050;2022-11-20T00:55:57;15.98;;;9.77;;
35276;SDS011;21401;50.878;8.050;2022-11-20T00:58:27;13.82;;;8.65;;
35276;SDS011;21401;50.878;8.050;2022-11-20T01:03:27;15.38;;;8.55;;
35276;SDS011;21401;50.878;8.050;2022-11-20T01:06:02;13.63;;;7.95;;
35276;SDS011;21401;50.878;8.050;2022-11-20T01:08:29;14.25;;;8.20;;
35276;SDS011;21401;50.878;8.050;2022-11-20T01:11:00;13.38;;;8.43;;
35276;SDS011;21401;50.878;8.050;2022-11-20T01:13:30;11.65;;;7.22;;
35276;SDS011;21401;50.878;8.050;2022-11-20T01:16:03;12.45;;;8.32;;
35276;SDS011;21401;50.878;8.050;2022-11-20T01:18:36;15.63;;;8.55;;
35276;SDS011;21401;50.878;8.050;2022-11-20T01:21:03;13.80;;;8.10;;
35276;SDS011;21401;50.878;8.050;2022-11-20T01:23:32;13.40;;;7.78;;
35276;SDS011;21401;50.878;8.050;2022-11-20T01:26:02;15.77;;;8.63;;
35276;SDS011;21401;50.878;8.050;2022-11-20T01:28:31;15.90;;;8.48;;
35276;SDS011;21401;50.878;8.050;2022-11-20T01:31:00;14.32;;;8.95;;
35276;SDS011;21401;50.878;8.050;2022-11-20T01:33:26;15.77;;;8.52;;
35276;SDS011;21401;50.878;8.050;2022-11-20T01:35:52;16.30;;;8.75;;
35276;SDS011;21401;50.878;8.050;2022-11-20T01:38:18;16.08;;;9.50;;
35276;SDS011;21401;50.878;8.050;2022-11-20T01:40:45;15.23;;;9.35;;
35276;SDS011;21401;50.878;8.050;2022-11-20T01:43:18;15.98;;;8.75;;
35276;SDS011;21401;50.878;8.050;2022-11-20T01:48:25;15.55;;;8.80;;
35276;SDS011;21401;50.878;8.050;2022-11-20T01:51:39;14.32;;;8.82;;
35276;SDS011;21401;50.878;8.050;2022-11-20T01:54:20;17.92;;;8.63;;
35276;SDS011;21401;50.878;8.050;2022-11-20T01:56:50;15.70;;;9.27;;
35276;SDS011;21401;50.878;8.050;2022-11-20T01:59:20;14.57;;;8.05;;
35276;SDS011;21401;50.878;8.050;2022-11-20T02:01:49;15.40;;;9.25;;
35276;SDS011;21401;50.878;8.050;2022-11-20T02:04:17;15.35;;;9.10;;
35276;SDS011;21401;50.878;8.050;2022-11-20T02:09:14;14.15;;;9.10;;
35276;SDS011;21401;50.878;8.050;2022-11-20T02:11:41;17.13;;;9.45;;
35276;SDS011;21401;50.878;8.050;2022-11-20T02:14:06;16.10;;;8.88;;
35276;SDS011;21401;50.878;8.050;2022-11-20T02:16:36;16.50;;;9.07;;
35276;SDS011;21401;50.878;8.050;2022-11-20T02:19:07;13.75;;;8.15;;
35276;SDS011;21401;50.878;8.050;2022-11-20T02:24:46;14.45;;;8.70;;
35276;SDS011;21401;50.878;8.050;2022-11-20T02:27:15;17.63;;;8.77;;
35276;SDS011;21401;50.878;8.050;2022-11-20T02:29:51;16.48;;;9.63;;
35276;SDS011;21401;50.878;8.050;2022-11-20T02:32:27;16.60;;;9.40;;
35276;SDS011;21401;50.878;8.050;2022-11-20T02:34:55;15.82;;;8.57;;
35276;SDS011;21401;50.878;8.050;2022-11-20T02:37:20;14.57;;;8.65;;
35276;SDS011;21401;50.878;8.050;2022-11-20T02:39:47;15.50;;;9.00;;
35276;SDS011;21401;50.878;8.050;2022-11-20T02:42:15;14.45;;;8.63;;
35276;SDS011;21401;50.878;8.050;2022-11-20T02:44:42;15.65;;;8.80;;
35276;SDS011;21401;50.878;8.050;2022-11-20T02:47:08;12.75;;;8.40;;
35276;SDS011;21401;50.878;8.050;2022-11-20T02:49:34;14.27;;;8.68;;
35276;SDS011;21401;50.878;8.050;2022-11-20T02:51:59;16.45;;;9.70;;
35276;SDS011;21401;50.878;8.050;2022-11-20T02:54:25;16.23;;;9.07;;
35276;SDS011;21401;50.878;8.050;2022-11-20T02:56:53;15.48;;;9.52;;
35276;SDS011;21401;50.878;8.050;2022-11-20T02:59:18;17.02;;;9.32;;
35276;SDS011;21401;50.878;8.050;2022-11-20T03:01:44;13.90;;;9.02;;
35276;SDS011;21401;50.878;8.050;2022-11-20T03:04:10;14.07;;;9.02;;
35276;SDS011;21401;50.878;8.050;2022-11-20T03:06:37;15.75;;;9.02;;
35276;SDS011;21401;50.878;8.050;2022-11-20T03:09:03;15.75;;;8.80;;
35276;SDS011;21401;50.878;8.050;2022-11-20T03:11:29;14.80;;;9.25;;
35276;SDS011;21401;50.878;8.050;2022-11-20T03:13:54;16.75;;;9.50;;
35276;SDS011;21401;50.878;8.050;2022-11-20T03:16:20;16.13;;;9.93;;
35276;SDS011;21401;50.878;8.050;2022-11-20T03:18:50;17.15;;;10.35;;
35276;SDS011;21401;50.878;8.050;2022-11-20T03:21:20;15.95;;;9.60;;
35276;SDS011;21401;50.878;8.050;2022-11-20T03:23:46;15.18;;;8.65;;
35276;SDS011;21401;50.878;8.050;2022-11-20T03:28:39;14.50;;;9.27;;
35276;SDS011;21401;50.878;8.050;2022-11-20T03:31:06;16.75;;;10.23;;
35276;SDS011;21401;50.878;8.050;2022-11-20T03:33:42;17.35;;;9.43;;
35276;SDS011;21401;50.878;8.050;2022-11-20T03:36:09;18.83;;;10.45;;
35276;SDS011;21401;50.878;8.050;2022-11-20T03:38:36;21.60;;;11.05;;
35276;SDS011;21401;50.878;8.050;2022-11-20T03:41:09;18.52;;;10.32;;
35276;SDS011;21401;50.878;8.050;2022-11-20T03:43:36;18.95;;;9.77;;
35276;SDS011;21401;50.878;8.050;2022-11-20T03:46:03;21.02;;;11.13;;
35276;SDS011;21401;50.878;8.050;2022-11-20T03:48:29;16.35;;;10.00;;
35276;SDS011;21401;50.878;8.050;2022-11-20T03:51:17;17.50;;;10.35;;
35276;SDS011;21401;50.878;8.050;2022-11-20T03:53:43;18.27;;;10.20;;
35276;SDS011;21401;50.878;8.050;2022-11-20T03:56:10;26.25;;;11.50;;
35276;SDS011;21401;50.878;8.050;2022-11-20T03:58:37;21.65;;;11.38;;
35276;SDS011;21401;50.878;8.050;2022-11-20T04:01:06;18.15;;;10.13;;
35276;SDS011;21401;50.878;8.050;2022-11-20T04:03:35;17.83;;;10.18;;
35276;SDS011;21401;50.878;8.050;2022-11-20T04:06:09;17.67;;;11.27;;
35276;SDS011;21401;50.878;8.050;2022-11-20T04:08:36;19.60;;;10.77;;
35276;SDS011;21401;50.878;8.050;2022-11-20T04:11:10;19.73;;;11.43;;
35276;SDS011;21401;50.878;8.050;2022-11-20T04:13:40;18.52;;;10.35;;
35276;SDS011;21401;50.878;8.050;2022-11-20T04:16:08;15.70;;;10.10;;
35276;SDS011;21401;50.878;8.050;2022-11-20T04:18:34;16.80;;;10.18;;
35276;SDS011;21401;50.878;8.050;2022-11-20T04:21:00;18.25;;;11.23;;
35276;SDS011;21401;50.878;8.050;2022-11-20T04:23:27;18.67;;;10.82;;
35276;SDS011;21401;50.878;8.050;2022-11-20T04:25:53;19.33;;;11.73;;
35276;SDS011;21401;50.878;8.050;2022-11-20T04:28:18;20.05;;;11.48;;
35276;SDS011;21401;50.878;8.050;2022-11-20T04:30:44;21.58;;;11.40;;
35276;SDS011;21401;50.878;8.050;2022-11-20T04:33:12;23.63;;;12.40;;
35276;SDS011;21401;50.878;8.050;2022-11-20T04:35:38;23.40;;;12.50;;
35276;SDS011;21401;50.878;8.050;2022-11-20T04:38:03;21.73;;;12.25;;
35276;SDS011;21401;50.878;8.050;2022-11-20T04:40:29;18.80;;;11.40;;
35276;SDS011;21401;50.878;8.050;2022-11-20T04:42:55;19.00;;;11.38;;
35276;SDS011;21401;50.878;8.050;2022-11-20T04:45:24;22.13;;;12.38;;
35276;SDS011;21401;50.878;8.050;2022-11-20T04:47:49;21.67;;;12.15;;
35276;SDS011;21401;50.878;8.050;2022-11-20T04:50:15;23.92;;;12.60;;
35276;SDS011;21401;50.878;8.050;2022-11-20T04:52:41;23.02;;;13.68;;
35276;SDS011;21401;50.878;8.050;2022-11-20T04:55:08;24.60;;;13.55;;
35276;SDS011;21401;50.878;8.050;2022-11-20T04:57:34;20.05;;;11.90;;
35276;SDS011;21401;50.878;8.050;2022-11-20T04:59:59;24.55;;;13.40;;
35276;SDS011;21401;50.878;8.050;2022-11-20T05:02:27;22.35;;;12.02;;
35276;SDS011;21401;50.878;8.050;2022-11-20T05:04:53;21.05;;;12.00;;
35276;SDS011;21401;50.878;8.050;2022-11-20T05:07:18;24.33;;;12.25;;
35276;SDS011;21401;50.878;8.050;2022-11-20T05:09:44;23.63;;;12.75;;
35276;SDS011;21401;50.878;8.050;2022-11-20T05:12:09;21.95;;;12.57;;
35276;SDS011;21401;50.878;8.050;2022-11-20T05:14:35;22.70;;;12.70;;
35276;SDS011;21401;50.878;8.050;2022-11-20T05:17:03;26.90;;;14.68;;
35276;SDS011;21401;50.878;8.050;2022-11-20T05:19:31;28.20;;;14.77;;
35276;SDS011;21401;50.878;8.050;2022-11-20T05:21:56;24.42;;;13.23;;
35276;SDS011;21401;50.878;8.050;2022-11-20T05:24:22;31.23;;;16.75;;
35276;SDS011;21401;50.878;8.050;2022-11-20T05:26:49;29.73;;;15.35;;
35276;SDS011;21401;50.878;8.050;2022-11-20T05:29:15;23.98;;;14.10;;
35276;SDS011;21401;50.878;8.050;2022-11-20T05:31:41;26.73;;;13.77;;
35276;SDS011;21401;50.878;8.050;2022-11-20T05:34:06;28.20;;;14.40;;
35276;SDS011;21401;50.878;8.050;2022-11-20T05:36:33;28.73;;;15.65;;
35276;SDS011;21401;50.878;8.050;2022-11-20T05:38:59;30.52;;;15.70;;
35276;SDS011;21401;50.878;8.050;2022-11-20T05:41:24;33.65;;;16.00;;
35276;SDS011;21401;50.878;8.050;2022-11-20T05:43:50;32.33;;;16.20;;
35276;SDS011;21401;50.878;8.050;2022-11-20T05:46:18;29.17;;;15.15;;
35276;SDS011;21401;50.878;8.050;2022-11-20T05:48:45;30.02;;;15.15;;
35276;SDS011;21401;50.878;8.050;2022-11-20T05:51:12;33.22;;;16.90;;
35276;SDS011;21401;50.878;8.050;2022-11-20T05:53:42;34.60;;;16.15;;
35276;SDS011;21401;50.878;8.050;2022-11-20T05:56:09;31.48;;;16.02;;
35276;SDS011;21401;50.878;8.050;2022-11-20T05:58:39;32.83;;;15.60;;
35276;SDS011;21401;50.878;8.050;2022-11-20T06:01:11;32.13;;;17.13;;
35276;SDS011;21401;50.878;8.050;2022-11-20T06:03:41;38.03;;;17.75;;
35276;SDS011;21401;50.878;8.050;2022-11-20T06:06:10;35.80;;;16.55;;
35276;SDS011;21401;50.878;8.050;2022-11-20T06:08:36;37.80;;;17.85;;
35276;SDS011;21401;50.878;8.050;2022-11-20T06:11:08;34.70;;;17.45;;
35276;SDS011;21401;50.878;8.050;2022-11-20T06:13:35;31.58;;;16.35;;
35276;SDS011;21401;50.878;8.050;2022-11-20T06:16:01;39.03;;;17.00;;
35276;SDS011;21401;50.878;8.050;2022-11-20T06:18:27;38.55;;;18.52;;
35276;SDS011;21401;50.878;8.050;2022-11-20T06:21:01;42.55;;;18.77;;
35276;SDS011;21401;50.878;8.050;2022-11-20T06:23:31;32.55;;;16.55;;
35276;SDS011;21401;50.878;8.050;2022-11-20T06:26:02;37.50;;;17.35;;
35276;SDS011;21401;50.878;8.050;2022-11-20T06:28:29;34.40;;;17.40;;
35276;SDS011;21401;50.878;8.050;2022-11-20T06:30:55;32.45;;;16.58;;
35276;SDS011;21401;50.878;8.050;2022-11-20T06:33:21;39.53;;;17.10;;
35276;SDS011;21401;50.878;8.050;2022-11-20T06:35:47;28.75;;;15.70;;
35276;SDS011;21401;50.878;8.050;2022-11-20T06:38:12;35.10;;;16.35;;
35276;SDS011;21401;50.878;8.050;2022-11-20T06:40:41;36.10;;;16.35;;
35276;SDS011;21401;50.878;8.050;2022-11-20T06:43:08;35.75;;;17.38;;
35276;SDS011;21401;50.878;8.050;2022-11-20T06:45:34;33.60;;;16.10;;
35276;SDS011;21401;50.878;8.050;2022-11-20T06:48:00;32.05;;;15.73;;
35276;SDS011;21401;50.878;8.050;2022-11-20T06:50:28;34.92;;;17.75;;
35276;SDS011;21401;50.878;8.050;2022-11-20T06:52:54;36.10;;;18.25;;
35276;SDS011;21401;50.878;8.050;2022-11-20T06:55:20;36.33;;;16.55;;
35276;SDS011;21401;50.878;8.050;2022-11-20T06:57:46;49.92;;;25.40;;
35276;SDS011;21401;50.878;8.050;2022-11-20T07:00:11;39.15;;;16.83;;
35276;SDS011;21401;50.878;8.050;2022-11-20T07:02:38;29.13;;;16.70;;
35276;SDS011;21401;50.878;8.050;2022-11-20T07:05:03;39.15;;;17.92;;
35276;SDS011;21401;50.878;8.050;2022-11-20T07:07:29;38.67;;;20.17;;
35276;SDS011;21401;50.878;8.050;2022-11-20T07:09:55;41.67;;;19.77;;
35276;SDS011;21401;50.878;8.050;2022-11-20T07:12:21;41.85;;;21.98;;
35276;SDS011;21401;50.878;8.050;2022-11-20T07:14:50;44.92;;;21.30;;
35276;SDS011;21401;50.878;8.050;2022-11-20T07:19:45;38.25;;;19.40;;
35276;SDS011;21401;50.878;8.050;2022-11-20T07:22:11;39.40;;;19.85;;
35276;SDS011;21401;50.878;8.050;2022-11-20T07:24:38;47.72;;;21.85;;
35276;SDS011;21401;50.878;8.050;2022-11-20T07:27:04;47.22;;;21.80;;
35276;SDS011;21401;50.878;8.050;2022-11-20T07:29:30;45.83;;;21.67;;
35276;SDS011;21401;50.878;8.050;2022-11-20T07:31:58;48.20;;;22.15;;
35276;SDS011;21401;50.878;8.050;2022-11-20T07:34:24;51.95;;;23.00;;
35276;SDS011;21401;50.878;8.050;2022-11-20T07:36:50;51.80;;;23.48;;
35276;SDS011;21401;50.878;8.050;2022-11-20T07:39:15;46.40;;;22.15;;
35276;SDS011;21401;50.878;8.050;2022-11-20T07:41:41;45.95;;;21.60;;
35276;SDS011;21401;50.878;8.050;2022-11-20T07:44:07;44.88;;;20.52;;
35276;SDS011;21401;50.878;8.050;2022-11-20T07:46:32;45.55;;;21.58;;
35276;SDS011;21401;50.878;8.050;2022-11-20T07:48:58;54.10;;;21.85;;
35276;SDS011;21401;50.878;8.050;2022-11-20T07:51:26;43.15;;;21.35;;
35276;SDS011;21401;50.878;8.050;2022-11-20T07:53:55;42.10;;;20.83;;
35276;SDS011;21401;50.878;8.050;2022-11-20T07:56:20;44.22;;;21.65;;
35276;SDS011;21401;50.878;8.050;2022-11-20T07:58:46;45.45;;;22.13;;
35276;SDS011;21401;50.878;8.050;2022-11-20T08:01:12;47.88;;;23.02;;
35276;SDS011;21401;50.878;8.050;2022-11-20T08:03:38;47.75;;;21.45;;
35276;SDS011;21401;50.878;8.050;2022-11-20T08:06:03;46.17;;;24.02;;
35276;SDS011;21401;50.878;8.050;2022-11-20T08:08:30;62.55;;;29.00;;
35276;SDS011;21401;50.878;8.050;2022-11-20T08:10:56;48.22;;;24.35;;
35276;SDS011;21401;50.878;8.050;2022-11-20T08:13:42;46.65;;;22.25;;
35276;SDS011;21401;50.878;8.050;2022-11-20T08:16:27;48.65;;;23.45;;
35276;SDS011;21401;50.878;8.050;2022-11-20T08:18:53;51.35;;;22.45;;
35276;SDS011;21401;50.878;8.050;2022-11-20T08:21:21;41.42;;;20.45;;
35276;SDS011;21401;50.878;8.050;2022-11-20T08:23:47;46.28;;;22.63;;
35276;SDS011;21401;50.878;8.050;2022-11-20T08:26:16;43.80;;;22.45;;
35276;SDS011;21401;50.878;8.050;2022-11-20T08:28:42;60.30;;;29.20;;
35276;SDS011;21401;50.878;8.050;2022-11-20T08:31:08;46.78;;;23.27;;
35276;SDS011;21401;50.878;8.050;2022-11-20T08:33:34;49.67;;;24.17;;
35276;SDS011;21401;50.878;8.050;2022-11-20T08:36:00;41.35;;;22.63;;
35276;SDS011;21401;50.878;8.050;2022-11-20T08:38:27;44.08;;;22.35;;
35276;SDS011;21401;50.878;8.050;2022-11-20T08:40:56;42.15;;;21.98;;
35276;SDS011;21401;50.878;8.050;2022-11-20T08:43:44;42.80;;;21.92;;
35276;SDS011;21401;50.878;8.050;2022-11-20T08:46:10;49.33;;;23.52;;
35276;SDS011;21401;50.878;8.050;2022-11-20T08:48:36;45.50;;;21.05;;
35276;SDS011;21401;50.878;8.050;2022-11-20T08:51:01;43.60;;;22.25;;
35276;SDS011;21401;50.878;8.050;2022-11-20T08:53:28;48.50;;;22.77;;
35276;SDS011;21401;50.878;8.050;2022-11-20T08:55:53;46.25;;;23.80;;
35276;SDS011;21401;50.878;8.050;2022-11-20T08:58:19;35.88;;;17.92;;
35276;SDS011;21401;50.878;8.050;2022-11-20T09:00:45;32.22;;;17.60;;
35276;SDS011;21401;50.878;8.050;2022-11-20T09:03:11;33.72;;;17.77;;
35276;SDS011;21401;50.878;8.050;2022-11-20T09:05:38;34.83;;;18.02;;
35276;SDS011;21401;50.878;8.050;2022-11-20T09:08:04;33.47;;;17.55;;
35276;SDS011;21401;50.878;8.050;2022-11-20T09:10:31;31.98;;;16.38;;
35276;SDS011;21401;50.878;8.050;2022-11-20T09:12:57;32.17;;;16.42;;
35276;SDS011;21401;50.878;8.050;2022-11-20T09:15:31;30.48;;;14.73;;
35276;SDS011;21401;50.878;8.050;2022-11-20T09:17:58;31.98;;;17.42;;
35276;SDS011;21401;50.878;8.050;2022-11-20T09:20:25;26.10;;;15.13;;
35276;SDS011;21401;50.878;8.050;2022-11-20T09:22:52;37.80;;;16.00;;
35276;SDS011;21401;50.878;8.050;2022-11-20T09:25:18;25.55;;;14.85;;
35276;SDS011;21401;50.878;8.050;2022-11-20T09:27:43;24.23;;;14.35;;
35276;SDS011;21401;50.878;8.050;2022-11-20T09:30:13;28.77;;;14.60;;
35276;SDS011;21401;50.878;8.050;2022-11-20T09:32:41;24.45;;;14.25;;
35276;SDS011;21401;50.878;8.050;2022-11-20T09:35:09;26.73;;;14.50;;
35276;SDS011;21401;50.878;8.050;2022-11-20T09:37:36;23.63;;;13.52;;
35276;SDS011;21401;50.878;8.050;2022-11-20T09:40:02;26.35;;;15.27;;
35276;SDS011;21401;50.878;8.050;2022-11-20T09:48:25;23.88;;;12.98;;
35276;SDS011;21401;50.878;8.050;2022-11-20T09:56:48;24.90;;;14.60;;
35276;SDS011;21401;50.878;8.050;2022-11-20T09:59:26;22.35;;;13.10;;
35276;SDS011;21401;50.878;8.050;2022-11-20T10:04:51;21.50;;;12.45;;
35276;SDS011;21401;50.878;8.050;2022-11-20T10:07:40;28.48;;;13.77;;
35276;SDS011;21401;50.878;8.050;2022-11-20T10:13:13;23.55;;;12.27;;
35276;SDS011;21401;50.878;8.050;2022-11-20T10:29:28;19.92;;;10.48;;
35276;SDS011;21401;50.878;8.050;2022-11-20T10:32:03;18.80;;;10.55;;
35276;SDS011;21401;50.878;8.050;2022-11-20T10:34:52;18.80;;;10.43;;
35276;SDS011;21401;50.878;8.050;2022-11-20T10:37:26;18.57;;;10.67;;
35276;SDS011;21401;50.878;8.050;2022-11-20T10:40:01;18.45;;;11.23;;
35276;SDS011;21401;50.878;8.050;2022-11-20T10:42:44;19.45;;;10.80;;
35276;SDS011;21401;50.878;8.050;2022-11-20T10:47:51;16.15;;;9.77;;
35276;SDS011;21401;50.878;8.050;2022-11-20T10:50:40;15.60;;;9.25;;
35276;SDS011;21401;50.878;8.050;2022-11-20T10:56:16;15.38;;;9.85;;
35276;SDS011;21401;50.878;8.050;2022-11-20T10:58:52;16.13;;;10.07;;
35276;SDS011;21401;50.878;8.050;2022-11-20T11:01:47;18.08;;;10.57;;
35276;SDS011;21401;50.878;8.050;2022-11-20T11:04:18;15.77;;;10.10;;
35276;SDS011;21401;50.878;8.050;2022-11-20T11:07:12;15.77;;;8.70;;
35276;SDS011;21401;50.878;8.050;2022-11-20T11:09:44;17.50;;;9.52;;
35276;SDS011;21401;50.878;8.050;2022-11-20T11:12:13;14.27;;;8.32;;
35276;SDS011;21401;50.878;8.050;2022-11-20T11:14:47;13.50;;;8.38;;
35276;SDS011;21401;50.878;8.050;2022-11-20T11:17:35;14.82;;;9.07;;
35276;SDS011;21401;50.878;8.050;2022-11-20T11:20:23;19.10;;;8.82;;
35276;SDS011;21401;50.878;8.050;2022-11-20T11:25:24;14.77;;;9.02;;
35276;SDS011;21401;50.878;8.050;2022-11-20T11:27:52;16.05;;;8.95;;
35276;SDS011;21401;50.878;8.050;2022-11-20T11:30:24;14.18;;;7.97;;
35276;SDS011;21401;50.878;8.050;2022-11-20T11:33:02;16.00;;;10.15;;
35276;SDS011;21401;50.878;8.050;2022-11-20T11:35:38;15.02;;;8.57;;
35276;SDS011;21401;50.878;8.050;2022-11-20T11:38:14;16.40;;;8.18;;
35276;SDS011;21401;50.878;8.050;2022-11-20T11:40:44;17.20;;;10.55;;
35276;SDS011;21401;50.878;8.050;2022-11-20T11:43:19;17.08;;;9.55;;
35276;SDS011;21401;50.878;8.050;2022-11-20T11:46:24;16.98;;;9.73;;
35276;SDS011;21401;50.878;8.050;2022-11-20T11:54:33;17.98;;;10.43;;
35276;SDS011;21401;50.878;8.050;2022-11-20T12:00:14;18.58;;;10.68;;
35276;SDS011;21401;50.878;8.050;2022-11-20T12:05:21;18.25;;;11.23;;
35276;SDS011;21401;50.878;8.050;2022-11-20T12:08:01;20.65;;;11.90;;
35276;SDS011;21401;50.878;8.050;2022-11-20T12:13:44;19.35;;;10.63;;
35276;SDS011;21401;50.878;8.050;2022-11-20T12:16:35;23.60;;;12.02;;
35276;SDS011;21401;50.878;8.050;2022-11-20T12:19:04;21.60;;;11.38;;
35276;SDS011;21401;50.878;8.050;2022-11-20T12:27:10;22.08;;;12.82;;
35276;SDS011;21401;50.878;8.050;2022-11-20T12:35:23;20.45;;;11.85;;
35276;SDS011;21401;50.878;8.050;2022-11-20T12:44:29;25.88;;;14.55;;
35276;SDS011;21401;50.878;8.050;2022-11-20T12:50:15;26.58;;;14.35;;
35276;SDS011;21401;50.878;8.050;2022-11-20T13:01:06;29.95;;;16.70;;
35276;SDS011;21401;50.878;8.050;2022-11-20T13:04:12;24.73;;;15.07;;
35276;SDS011;21401;50.878;8.050;2022-11-20T13:07:11;31.63;;;15.48;;
35276;SDS011;21401;50.878;8.050;2022-11-20T13:09:45;23.90;;;14.27;;
35276;SDS011;21401;50.878;8.050;2022-11-20T13:12:15;27.15;;;15.25;;
35276;SDS011;21401;50.878;8.050;2022-11-20T13:18:00;28.73;;;15.17;;
35276;SDS011;21401;50.878;8.050;2022-11-20T13:20:29;32.53;;;18.35;;
35276;SDS011;21401;50.878;8.050;2022-11-20T13:23:23;31.98;;;16.50;;
35276;SDS011;21401;50.878;8.050;2022-11-20T13:26:06;33.70;;;17.20;;
35276;SDS011;21401;50.878;8.050;2022-11-20T13:28:47;31.35;;;17.38;;
35276;SDS011;21401;50.878;8.050;2022-11-20T13:31:43;27.60;;;15.10;;
35276;SDS011;21401;50.878;8.050;2022-11-20T13:34:22;27.25;;;15.18;;
35276;SDS011;21401;50.878;8.050;2022-11-20T13:37:23;27.63;;;15.73;;
35276;SDS011;21401;50.878;8.050;2022-11-20T13:40:04;31.83;;;16.90;;
35276;SDS011;21401;50.878;8.050;2022-11-20T13:42:53;27.48;;;15.20;;
35276;SDS011;21401;50.878;8.050;2022-11-20T13:45:23;27.75;;;16.65;;
35276;SDS011;21401;50.878;8.050;2022-11-20T13:47:54;27.63;;;15.23;;
35276;SDS011;21401;50.878;8.050;2022-11-20T13:50:23;27.05;;;15.27;;
35276;SDS011;21401;50.878;8.050;2022-11-20T13:54:07;26.27;;;14.30;;
35276;SDS011;21401;50.878;8.050;2022-11-20T13:58:50;26.85;;;14.23;;
35276;SDS011;21401;50.878;8.050;2022-11-20T14:01:38;27.95;;;14.85;;
35276;SDS011;21401;50.878;8.050;2022-11-20T14:04:08;23.52;;;14.60;;
35276;SDS011;21401;50.878;8.050;2022-11-20T14:06:42;26.90;;;16.23;;
35276;SDS011;21401;50.878;8.050;2022-11-20T14:09:12;31.85;;;17.00;;
35276;SDS011;21401;50.878;8.050;2022-11-20T14:11:49;29.42;;;16.10;;
35276;SDS011;21401;50.878;8.050;2022-11-20T14:14:16;31.00;;;16.88;;
35276;SDS011;21401;50.878;8.050;2022-11-20T14:16:44;27.50;;;16.58;;
35276;SDS011;21401;50.878;8.050;2022-11-20T14:19:43;30.95;;;16.38;;
35276;SDS011;21401;50.878;8.050;2022-11-20T14:22:08;29.20;;;16.55;;
35276;SDS011;21401;50.878;8.050;2022-11-20T14:24:43;34.35;;;18.10;;
35276;SDS011;21401;50.878;8.050;2022-11-20T14:27:14;30.40;;;17.35;;
35276;SDS011;21401;50.878;8.050;2022-11-20T14:29:49;27.20;;;16.40;;
35276;SDS011;21401;50.878;8.050;2022-11-20T14:32:16;30.55;;;17.15;;
35276;SDS011;21401;50.878;8.050;2022-11-20T14:34:52;32.25;;;18.00;;
35276;SDS011;21401;50.878;8.050;2022-11-20T14:37:20;32.50;;;16.48;;
35276;SDS011;21401;50.878;8.050;2022-11-20T14:39:52;34.10;;;17.63;;
35276;SDS011;21401;50.878;8.050;2022-11-20T14:42:23;34.58;;;18.10;;
35276;SDS011;21401;50.878;8.050;2022-11-20T14:44:52;32.92;;;18.50;;
35276;SDS011;21401;50.878;8.050;2022-11-20T14:47:36;32.70;;;18.80;;
35276;SDS011;21401;50.878;8.050;2022-11-20T14:50:07;39.25;;;19.77;;
35276;SDS011;21401;50.878;8.050;2022-11-20T14:52:49;41.33;;;21.88;;
35276;SDS011;21401;50.878;8.050;2022-11-20T14:58:04;102.00;;;51.47;;
35276;SDS011;21401;50.878;8.050;2022-11-20T15:00:32;58.05;;;33.38;;
35276;SDS011;21401;50.878;8.050;2022-11-20T15:03:13;49.95;;;27.77;;
35276;SDS011;21401;50.878;8.050;2022-11-20T15:05:56;39.15;;;21.33;;
35276;SDS011;21401;50.878;8.050;2022-11-20T15:08:22;43.80;;;22.65;;
35276;SDS011;21401;50.878;8.050;2022-11-20T15:10:51;40.30;;;23.27;;
35276;SDS011;21401;50.878;8.050;2022-11-20T15:15:55;42.42;;;22.40;;
35276;SDS011;21401;50.878;8.050;2022-11-20T15:18:24;42.47;;;22.92;;
35276;SDS011;21401;50.878;8.050;2022-11-20T15:21:09;41.45;;;22.58;;
35276;SDS011;21401;50.878;8.050;2022-11-20T15:23:37;36.53;;;20.95;;
35276;SDS011;21401;50.878;8.050;2022-11-20T15:26:06;45.90;;;25.30;;
35276;SDS011;21401;50.878;8.050;2022-11-20T15:28:36;51.53;;;28.38;;
35276;SDS011;21401;50.878;8.050;2022-11-20T15:31:05;44.00;;;24.25;;
35276;SDS011;21401;50.878;8.050;2022-11-20T15:33:38;40.42;;;24.17;;
35276;SDS011;21401;50.878;8.050;2022-11-20T15:36:09;39.55;;;22.02;;
35276;SDS011;21401;50.878;8.050;2022-11-20T15:38:37;38.35;;;21.27;;
35276;SDS011;21401;50.878;8.050;2022-11-20T15:41:06;46.38;;;24.80;;
35276;SDS011;21401;50.878;8.050;2022-11-20T15:43:32;42.17;;;22.45;;
35276;SDS011;21401;50.878;8.050;2022-11-20T15:46:09;42.53;;;21.90;;
35276;SDS011;21401;50.878;8.050;2022-11-20T15:48:56;37.88;;;20.98;;
35276;SDS011;21401;50.878;8.050;2022-11-20T15:51:29;36.67;;;22.17;;
35276;SDS011;21401;50.878;8.050;2022-11-20T15:54:10;37.50;;;22.17;;
35276;SDS011;21401;50.878;8.050;2022-11-20T15:56:48;36.42;;;20.50;;
35276;SDS011;21401;50.878;8.050;2022-11-20T16:01:43;36.25;;;18.92;;
35276;SDS011;21401;50.878;8.050;2022-11-20T16:04:14;40.22;;;19.73;;
35276;SDS011;21401;50.878;8.050;2022-11-20T16:06:41;39.85;;;20.40;;
35276;SDS011;21401;50.878;8.050;2022-11-20T16:09:09;38.22;;;20.52;;
35276;SDS011;21401;50.878;8.050;2022-11-20T16:11:36;39.08;;;21.83;;
35276;SDS011;21401;50.878;8.050;2022-11-20T16:14:17;37.60;;;19.60;;
35276;SDS011;21401;50.878;8.050;2022-11-20T16:17:15;34.65;;;19.13;;
35276;SDS011;21401;50.878;8.050;2022-11-20T16:20:09;39.15;;;20.77;;
35276;SDS011;21401;50.878;8.050;2022-11-20T16:25:17;33.63;;;18.08;;
35276;SDS011;21401;50.878;8.050;2022-11-20T16:27:49;39.85;;;22.00;;
35276;SDS011;21401;50.878;8.050;2022-11-20T16:30:53;41.72;;;21.98;;
35276;SDS011;21401;50.878;8.050;2022-11-20T16:33:52;35.88;;;19.70;;
35276;SDS011;21401;50.878;8.050;2022-11-20T16:36:20;34.20;;;18.33;;
35276;SDS011;21401;50.878;8.050;2022-11-20T16:38:51;35.70;;;19.38;;
35276;SDS011;21401;50.878;8.050;2022-11-20T16:41:21;40.70;;;19.42;;
35276;SDS011;21401;50.878;8.050;2022-11-20T16:43:54;39.13;;;21.35;;